Overview Statistics Trail Chart Weather Telemetry Raw packets
 

This is the latest recevied weather packets stored in our database for station/object XE2AD-3. If no packets are shown the sender has not sent any weather packets the latest 10 day(s).

<< 1 2 3 4 5 >>
Time Temp. Humidity Pressure Rain* Wind** Luminosity Snow
1788354796 12.78° C 98% 803.7 hPa - - - -
1788351214 12.78° C 95% 803.6 hPa - - - -
1788350019 12.78° C 95% 803.4 hPa - - - -
1788348830 13.33° C 94% 803.6 hPa - - - -
1788342861 13.33° C 93% 803.9 hPa - - - -
1788330920 13.89° C 91% 804.5 hPa - - - -
1788326131 14.44° C 90% 804.7 hPa - - - -
1788322546 14.44° C 90% 804.4 hPa - - - -
1788321351 14.44° C 89% 804.3 hPa - - - -
1788314180 16.11° C 82% 801.7 hPa - - - -
1788312981 16.11° C 82% 801.2 hPa - - - -
1788310590 16.67° C 82% 800.8 hPa - - - -
1788309395 16.67° C 84% 800.9 hPa - - - -
1788307006 16.67° C 83% 800.8 hPa - - - -
1788268757 13.33° C 100% 802.8 hPa - - - -
1788259204 13.33° C 90% 802.4 hPa - - - -
1788232938 15.56° C 75% 802.3 hPa - - - -
1788231752 16.11° C 75% 801.9 hPa - - - -
1788230555 16.11° C 75% 801.6 hPa - - - -
1788180386 13.33° C 100% 802.6 hPa - - - -
1788175617 12.78° C 100% 802.1 hPa - - - -
1788157695 13.33° C 91% 802 hPa - - - -
1788156502 13.33° C 89% 801.8 hPa - - - -
1788155314 13.33° C 88% 802 hPa - - - -
1788152909 13.89° C 88% 802.1 hPa - - - -

* Rain since midnight (hover to see other rain measurements)
** Current wind speed in m/s (hover to see current wind gust speed)